Time;durP1;ratioP1;P1;durP2;ratioP2;P2;SDS_P1;SDS_P2;PMS_P1;PMS_P2;Temp;Humidity;BMP_temperature;BMP_pressure;BME280_temperature;BME280_humidity;BME280_pressure;Samples;Min_cycle;Max_cycle;Signal;HPM_P1;HPM_P2
2022/06/29 00:00:34;;;;;;;6.57;5.82;;;;;;;23.77;53.92;101358.00;5066014;28;20423;-54
2022/06/29 00:03:00;;;;;;;6.15;5.55;;;;;;;23.76;54.17;101359.09;5065519;28;20423;-52
2022/06/29 00:05:30;;;;;;;6.22;5.65;;;;;;;23.75;54.36;101352.03;5064425;28;20438;-51
2022/06/29 00:07:57;;;;;;;6.18;5.57;;;;;;;23.75;54.57;101347.44;5067186;28;20418;-54
2022/06/29 00:10:25;;;;;;;7.10;5.85;;;;;;;23.63;54.96;101346.69;5067801;28;20419;-52
2022/06/29 00:12:53;;;;;;;7.85;7.05;;;;;;;23.66;55.01;101351.63;5065976;28;20426;-53
2022/06/29 00:15:21;;;;;;;7.35;6.65;;;;;;;23.68;54.87;101341.38;5066084;28;20506;-52
2022/06/29 00:17:48;;;;;;;7.00;6.40;;;;;;;23.64;54.59;101351.84;5066890;28;20415;-53
2022/06/29 00:20:16;;;;;;;6.85;6.15;;;;;;;23.66;54.83;101344.31;5064490;28;20427;-51
2022/06/29 00:22:46;;;;;;;6.93;6.22;;;;;;;23.70;54.37;101332.97;5067635;28;20450;-52
2022/06/29 00:25:14;;;;;;;6.82;6.20;;;;;;;23.68;54.77;101333.25;5062682;28;20490;-52
2022/06/29 00:27:41;;;;;;;7.90;6.50;;;;;;;23.69;54.63;101334.06;5065920;28;21026;-53
2022/06/29 00:30:09;;;;;;;6.70;5.90;;;;;;;23.67;54.74;101332.41;5066904;28;20426;-54
2022/06/29 00:32:37;;;;;;;6.78;6.13;;;;;;;23.69;54.69;101324.03;5064813;28;21153;-53
2022/06/29 00:35:05;;;;;;;7.07;6.38;;;;;;;23.70;54.68;101316.72;5067179;28;20435;-50
2022/06/29 00:37:32;;;;;;;6.55;6.03;;;;;;;23.69;55.13;101310.50;5064515;28;20803;-54
2022/06/29 00:40:00;;;;;;;7.13;6.53;;;;;;;23.67;55.13;101310.75;5064722;28;20414;-52
2022/06/29 00:42:27;;;;;;;6.45;5.85;;;;;;;23.63;54.71;101303.38;5068060;28;20913;-58
2022/06/29 00:44:54;;;;;;;6.40;5.80;;;;;;;23.67;55.12;101305.34;5068836;28;20506;-53
2022/06/29 00:47:22;;;;;;;7.00;5.60;;;;;;;23.66;55.01;101306.41;5065795;28;20422;-54
2022/06/29 00:49:49;;;;;;;6.40;5.80;;;;;;;23.66;54.77;101301.00;5066187;28;20428;-52
2022/06/29 00:52:17;;;;;;;6.60;6.00;;;;;;;23.67;54.76;101293.69;5064928;28;20506;-53
2022/06/29 00:56:09;;;;;;;6.20;5.60;;;;;;;23.67;54.97;101288.28;5052739;28;20988;-54
2022/06/29 00:58:36;;;;;;;5.90;5.40;;;;;;;23.66;54.53;101283.94;5040449;28;20422;-55
2022/06/29 01:01:04;;;;;;;6.25;5.72;;;;;;;23.66;54.84;101282.06;5038138;28;20880;-54
2022/06/29 01:03:32;;;;;;;5.45;4.95;;;;;;;23.65;54.55;101277.69;5042418;28;20413;-53
2022/06/29 01:06:00;;;;;;;6.25;5.65;;;;;;;23.66;54.38;101286.66;5041610;28;20431;-54
2022/06/29 01:08:27;;;;;;;7.05;6.30;;;;;;;23.65;54.40;101282.28;5043526;28;20495;-55
2022/06/29 01:10:54;;;;;;;6.47;5.90;;;;;;;23.62;53.89;101278.19;5041725;28;20428;-54
2022/06/29 01:13:22;;;;;;;7.23;5.70;;;;;;;23.61;53.87;101281.97;5038352;28;20435;-54
2022/06/29 01:15:49;;;;;;;5.78;5.25;;;;;;;23.59;53.92;101289.50;5043393;28;20430;-55
2022/06/29 01:18:16;;;;;;;6.10;5.50;;;;;;;23.57;53.64;101286.22;5041367;28;20806;-55
2022/06/29 01:20:43;;;;;;;8.20;5.30;;;;;;;23.54;53.66;101284.00;5041447;28;20417;-54
2022/06/29 01:23:12;;;;;;;6.15;5.55;;;;;;;23.52;53.76;101282.59;5040185;28;20429;-56
2022/06/29 01:25:38;;;;;;;6.27;5.67;;;;;;;23.50;53.96;101290.13;5037019;28;20475;-55
2022/06/29 01:28:05;;;;;;;6.25;5.57;;;;;;;23.46;53.91;101282.50;5043313;28;20424;-53
2022/06/29 01:30:32;;;;;;;6.32;5.72;;;;;;;23.45;53.68;101272.72;5042027;28;20420;-55
2022/06/29 01:32:59;;;;;;;6.22;5.40;;;;;;;23.44;54.06;101284.63;5041573;28;20443;-55
2022/06/29 01:35:26;;;;;;;7.68;5.72;;;;;;;23.43;54.23;101282.16;5040052;28;20429;-52
2022/06/29 01:37:54;;;;;;;7.60;5.78;;;;;;;23.40;54.15;101288.06;5041270;28;20446;-53
2022/06/29 01:40:22;;;;;;;6.18;5.55;;;;;;;23.38;54.06;101274.75;5039613;28;20804;-53
2022/06/29 01:42:49;;;;;;;7.40;5.80;;;;;;;23.39;54.06;101271.00;5041654;28;20819;-55
2022/06/29 01:46:29;;;;;;;7.30;5.70;;;;;;;23.38;54.33;101273.97;5072455;27;20832;-57
2022/06/29 01:48:56;;;;;;;9.43;6.07;;;;;;;23.36;54.34;101270.69;5071539;28;20424;-55
2022/06/29 01:51:23;;;;;;;6.55;5.90;;;;;;;23.34;54.35;101278.22;5068989;28;20423;-54
2022/06/29 01:53:50;;;;;;;6.18;5.50;;;;;;;23.33;54.38;101277.38;5069662;28;20510;-55
2022/06/29 01:56:17;;;;;;;7.10;5.70;;;;;;;23.33;54.42;101282.78;5068199;28;20520;-54
2022/06/29 01:58:45;;;;;;;6.45;5.85;;;;;;;23.32;54.24;101274.91;5070762;28;20769;-54
2022/06/29 02:02:03;;;;;;;6.93;5.72;;;;;;;23.28;54.15;101270.00;5076243;27;20418;-54
2022/06/29 02:04:30;;;;;;;6.53;5.80;;;;;;;23.29;53.91;101265.41;5061716;28;20421;-55
2022/06/29 02:06:57;;;;;;;6.13;5.55;;;;;;;23.26;53.95;101264.00;5061250;28;20433;-55
2022/06/29 02:09:24;;;;;;;6.47;5.50;;;;;;;23.24;53.77;101266.09;5056488;28;21555;-55
2022/06/29 02:13:02;;;;;;;6.10;5.50;;;;;;;23.21;53.45;101263.91;5096298;27;2027831;-55
2022/06/29 02:15:29;;;;;;;6.15;5.45;;;;;;;23.20;53.78;101264.16;5154577;27;20411;-54
2022/06/29 02:17:56;;;;;;;6.13;5.53;;;;;;;23.18;53.46;101261.69;5143209;27;20410;-56
2022/06/29 02:20:23;;;;;;;7.28;5.50;;;;;;;23.12;53.94;101257.25;5145556;27;20408;-55
2022/06/29 02:22:50;;;;;;;5.70;5.20;;;;;;;23.08;54.09;101258.75;5158562;27;20412;-55
2022/06/29 02:25:17;;;;;;;6.45;5.32;;;;;;;23.04;53.93;101258.41;5159375;27;20411;-54
2022/06/29 02:27:46;;;;;;;5.63;5.13;;;;;;;23.01;53.76;101250.78;5148310;27;20443;-52
2022/06/29 02:30:16;;;;;;;7.20;5.40;;;;;;;22.97;54.29;101254.19;5143968;27;20419;-53
2022/06/29 02:35:28;;;;;;;6.45;5.75;;;;;;;22.75;54.51;101245.91;5145360;27;20423;-54
2022/06/29 02:37:55;;;;;;;7.35;5.90;;;;;;;22.74;55.11;101241.53;5150122;27;20450;-54
2022/06/29 02:40:22;;;;;;;6.00;5.40;;;;;;;22.64;55.31;101242.16;5142901;27;20417;-56
2022/06/29 02:42:50;;;;;;;7.55;5.95;;;;;;;22.49;55.91;101245.34;5150395;27;20412;-54
2022/06/29 02:45:18;;;;;;;6.45;5.80;;;;;;;22.64;55.89;101242.16;5141699;27;20418;-55
2022/06/29 02:47:45;;;;;;;7.03;6.00;;;;;;;22.71;55.89;101240.97;5156344;27;21036;-55
2022/06/29 02:50:12;;;;;;;7.60;6.03;;;;;;;22.78;55.82;101258.91;5143478;27;21245;-55
2022/06/29 02:52:39;;;;;;;6.68;5.97;;;;;;;22.80;55.95;101267.63;5147829;27;20420;-56
2022/06/29 02:55:06;;;;;;;6.47;5.88;;;;;;;22.84;55.53;101263.41;5140955;27;20415;-55
2022/06/29 02:57:33;;;;;;;7.57;5.97;;;;;;;22.87;55.58;101266.44;5160714;27;20954;-53
2022/06/29 03:00:00;;;;;;;6.22;5.63;;;;;;;22.89;55.70;101263.50;5152339;27;20401;-55
2022/06/29 03:02:28;;;;;;;6.32;5.50;;;;;;;22.82;55.39;101265.53;5149694;27;20424;-57
2022/06/29 03:04:55;;;;;;;6.07;5.32;;;;;;;22.83;54.94;101270.69;5148185;27;20401;-53
2022/06/29 03:07:22;;;;;;;5.65;5.13;;;;;;;22.86;54.99;101272.91;5151831;27;20404;-55
2022/06/29 03:09:49;;;;;;;5.70;5.10;;;;;;;22.90;54.83;101275.94;5161681;27;20506;-54
2022/06/29 03:12:16;;;;;;;6.35;4.78;;;;;;;22.92;54.76;101271.13;5156095;27;20428;-54
2022/06/29 03:14:43;;;;;;;5.45;4.95;;;;;;;22.88;53.81;101265.38;5152082;27;20416;-53
2022/06/29 03:17:10;;;;;;;5.77;4.50;;;;;;;22.93;54.12;101269.25;5149441;27;20423;-54
2022/06/29 03:19:38;;;;;;;6.47;4.35;;;;;;;22.92;53.92;101276.53;5154692;27;20411;-54
2022/06/29 03:22:05;;;;;;;5.68;4.32;;;;;;;22.95;53.68;101265.25;5161108;27;20425;-55
2022/06/29 03:24:32;;;;;;;4.97;4.25;;;;;;;23.03;53.49;101259.47;5139445;27;20414;-54
2022/06/29 03:26:58;;;;;;;6.25;4.70;;;;;;;23.09;53.07;101252.31;5144218;27;20800;-53
2022/06/29 03:29:25;;;;;;;6.20;4.40;;;;;;;23.13;52.80;101258.06;5140529;27;20410;-54
2022/06/29 03:31:52;;;;;;;8.63;4.50;;;;;;;23.11;52.67;101258.28;5135657;27;20430;-54
2022/06/29 03:34:19;;;;;;;5.57;5.07;;;;;;;23.18;52.78;101263.56;5128272;27;20408;-56
2022/06/29 03:36:48;;;;;;;5.80;5.20;;;;;;;23.23;52.88;101264.47;5132807;27;20787;-54
2022/06/29 03:39:15;;;;;;;5.68;5.10;;;;;;;23.26;52.71;101264.00;5132460;27;20420;-55
2022/06/29 03:41:42;;;;;;;5.57;4.60;;;;;;;23.23;52.61;101255.56;5128376;27;20409;-54
2022/06/29 03:44:09;;;;;;;5.00;4.40;;;;;;;23.23;52.84;101256.38;5131850;27;20413;-55
2022/06/29 03:46:35;;;;;;;6.28;4.28;;;;;;;23.31;52.87;101257.84;5135041;27;20413;-55
2022/06/29 03:49:02;;;;;;;4.47;4.07;;;;;;;23.38;52.07;101261.25;5136352;27;20413;-54
2022/06/29 03:51:29;;;;;;;5.03;4.53;;;;;;;23.41;52.07;101260.75;5135218;27;20923;-55
2022/06/29 03:53:58;;;;;;;6.10;4.13;;;;;;;23.53;52.20;101247.16;5132103;27;20416;-52
2022/06/29 03:56:24;;;;;;;5.45;4.15;;;;;;;23.64;52.06;101257.13;5134202;27;20401;-51
2022/06/29 03:58:51;;;;;;;5.00;3.92;;;;;;;23.71;52.14;101242.59;5134551;27;20422;-54
2022/06/29 04:01:19;;;;;;;4.60;4.20;;;;;;;23.76;51.77;101253.50;5128075;27;20501;-54
2022/06/29 04:03:46;;;;;;;5.20;4.10;;;;;;;23.83;51.66;101252.31;5121119;27;20956;-54
2022/06/29 04:06:13;;;;;;;5.65;4.30;;;;;;;23.89;51.36;101253.22;5118470;27;20411;-54
2022/06/29 04:08:40;;;;;;;5.22;4.45;;;;;;;23.92;51.15;101257.34;5123942;27;20424;-54
2022/06/29 04:11:48;;;;;;;4.88;4.20;;;;;;;23.99;50.99;101264.22;5137962;27;20410;-55
2022/06/29 04:13:56;;;;;;;6.28;4.32;;;;;;;24.11;51.41;101260.59;5122320;27;20911;-55
2022/06/29 04:16:23;;;;;;;5.03;4.28;;;;;;;24.22;51.21;101262.41;5119955;27;20435;-55
2022/06/29 04:18:50;;;;;;;5.78;4.70;;;;;;;24.26;51.14;101262.75;5136283;27;20428;-52
2022/06/29 04:21:17;;;;;;;6.03;4.65;;;;;;;24.33;50.90;101263.38;5139375;27;20410;-54
2022/06/29 04:23:44;;;;;;;5.95;4.70;;;;;;;24.41;50.42;101249.41;5142804;27;20500;-55
2022/06/29 04:26:12;;;;;;;5.37;4.63;;;;;;;24.53;50.79;101242.00;5136016;27;20404;-53
2022/06/29 04:28:40;;;;;;;5.45;4.80;;;;;;;24.60;50.22;101241.84;5126647;27;20492;-54
2022/06/29 04:31:07;;;;;;;7.38;5.07;;;;;;;24.69;49.80;101245.75;5124907;27;20990;-52
2022/06/29 04:33:33;;;;;;;5.55;4.93;;;;;;;24.80;50.09;101242.09;5131421;27;20425;-54
2022/06/29 04:36:01;;;;;;;9.05;5.20;;;;;;;24.91;49.94;101234.09;5130477;27;20919;-53
2022/06/29 04:38:28;;;;;;;5.97;5.38;;;;;;;25.04;49.78;101244.53;5128889;27;20802;-53
2022/06/29 04:40:55;;;;;;;5.80;4.80;;;;;;;25.13;49.21;101253.03;5123691;27;20416;-53
2022/06/29 04:43:24;;;;;;;5.72;5.13;;;;;;;25.29;48.67;101248.63;5126166;27;20410;-54
2022/06/29 04:48:35;;;;;;;5.97;5.30;;;;;;;25.49;48.53;101237.97;5128784;27;20389;-54
2022/06/29 04:51:02;;;;;;;6.03;5.50;;;;;;;25.63;48.70;101245.72;5132844;27;20787;-51
2022/06/29 04:53:29;;;;;;;9.50;6.88;;;;;;;25.78;48.08;101234.97;5133091;27;20428;-53
2022/06/29 04:55:56;;;;;;;8.73;6.50;;;;;;;25.93;47.54;101237.84;5133801;27;20418;-53
2022/06/29 04:58:24;;;;;;;10.50;8.25;;;;;;;26.10;47.69;101236.88;5131407;27;20409;-53
2022/06/29 05:00:51;;;;;;;7.65;6.05;;;;;;;26.25;46.73;101230.72;5129967;27;20410;-55
2022/06/29 05:03:18;;;;;;;7.53;6.50;;;;;;;26.40;47.00;101217.22;5134022;27;20414;-52
2022/06/29 05:05:47;;;;;;;6.85;6.10;;;;;;;26.56;46.32;101223.56;5129261;27;20409;-53
2022/06/29 05:08:14;;;;;;;6.90;6.22;;;;;;;26.71;45.90;101228.25;5125580;27;20470;-54
2022/06/29 05:10:41;;;;;;;7.85;5.32;;;;;;;26.79;45.70;101229.63;5132474;27;20414;-54
2022/06/29 05:13:09;;;;;;;6.75;5.90;;;;;;;26.94;45.08;101231.59;5132123;27;20436;-50
2022/06/29 05:15:38;;;;;;;6.15;5.50;;;;;;;27.05;44.79;101222.41;5133114;27;22064;-55
2022/06/29 05:18:05;;;;;;;7.75;5.20;;;;;;;27.13;44.88;101221.84;5138336;27;20779;-53
2022/06/29 05:20:32;;;;;;;6.20;5.63;;;;;;;27.25;44.55;101213.44;5134304;27;20781;-53
2022/06/29 05:22:59;;;;;;;6.78;5.40;;;;;;;27.32;43.88;101215.94;5131899;27;20410;-55
2022/06/29 05:25:26;;;;;;;6.90;5.82;;;;;;;27.37;43.74;101222.22;5127706;27;20414;-52
2022/06/29 05:27:53;;;;;;;6.43;5.70;;;;;;;27.49;43.49;101226.56;5134667;27;20501;-53
2022/06/29 05:30:20;;;;;;;6.80;5.00;;;;;;;27.61;43.36;101229.84;5130976;27;20420;-51
2022/06/29 05:32:48;;;;;;;7.18;5.45;;;;;;;27.71;43.34;101240.72;5133974;27;20802;-53
2022/06/29 05:35:15;;;;;;;7.25;5.35;;;;;;;27.65;43.94;101241.81;5137751;27;20402;-53
2022/06/29 05:37:42;;;;;;;9.10;5.13;;;;;;;27.96;42.80;101239.94;5137176;27;20795;-52
2022/06/29 05:40:10;;;;;;;7.43;5.20;;;;;;;28.15;43.10;101232.00;5137060;27;20441;-53
2022/06/29 05:42:37;;;;;;;5.57;5.00;;;;;;;28.10;43.38;101220.31;5130889;27;20410;-53
2022/06/29 05:45:04;;;;;;;6.90;5.60;;;;;;;28.44;42.90;101227.84;5130712;27;20414;-51
2022/06/29 05:47:31;;;;;;;5.50;4.97;;;;;;;28.46;42.48;101220.22;5129699;27;21027;-52
2022/06/29 05:50:00;;;;;;;6.30;5.10;;;;;;;28.87;41.88;101220.06;5130733;27;21301;-53
2022/06/29 05:52:27;;;;;;;7.90;5.43;;;;;;;29.21;41.28;101224.78;5135229;27;20421;-54
2022/06/29 05:54:54;;;;;;;7.55;4.63;;;;;;;29.57;40.40;101224.53;5132673;27;20921;-54
2022/06/29 05:57:21;;;;;;;6.38;4.95;;;;;;;29.85;39.75;101237.44;5129517;27;20907;-54
2022/06/29 05:59:48;;;;;;;4.80;4.40;;;;;;;30.16;39.17;101239.06;5119520;27;20412;-53
2022/06/29 06:02:15;;;;;;;6.78;4.82;;;;;;;30.30;39.15;101234.53;5116552;27;20415;-55
2022/06/29 06:04:42;;;;;;;5.70;4.68;;;;;;;30.49;38.75;101237.38;5116137;27;20507;-53
2022/06/29 06:07:10;;;;;;;6.75;4.85;;;;;;;30.68;38.10;101240.13;5117200;27;20527;-53
2022/06/29 06:09:37;;;;;;;6.57;4.70;;;;;;;30.99;37.51;101245.22;5127083;27;20410;-53
2022/06/29 06:12:05;;;;;;;6.13;4.63;;;;;;;31.10;37.85;101237.69;5129479;27;20416;-54
2022/06/29 06:14:32;;;;;;;11.85;4.60;;;;;;;31.29;36.92;101248.63;5132660;27;20999;-53
2022/06/29 06:16:59;;;;;;;5.22;4.72;;;;;;;31.61;36.05;101243.22;5129630;27;20436;-53
2022/06/29 06:19:26;;;;;;;4.70;4.30;;;;;;;31.77;36.08;101227.31;5132265;27;20997;-53
2022/06/29 06:21:53;;;;;;;5.97;4.10;;;;;;;32.29;35.78;101234.66;5131528;27;20416;-54
2022/06/29 06:24:21;;;;;;;5.78;4.00;;;;;;;32.16;35.34;101228.84;5130802;27;20915;-53
2022/06/29 06:26:48;;;;;;;4.60;4.20;;;;;;;32.37;35.00;101232.00;5129765;27;20414;-53
2022/06/29 06:29:16;;;;;;;4.75;3.80;;;;;;;33.10;34.35;101229.38;5133494;27;20929;-52
2022/06/29 06:31:42;;;;;;;7.82;4.38;;;;;;;33.59;33.78;101229.59;5135468;27;20415;-52
2022/06/29 06:34:09;;;;;;;14.02;6.80;;;;;;;34.05;32.98;101216.59;5129296;27;20427;-52
2022/06/29 06:36:36;;;;;;;8.85;5.05;;;;;;;34.67;31.92;101219.25;5132518;27;20803;-52
2022/06/29 06:39:04;;;;;;;8.27;4.90;;;;;;;35.19;30.86;101217.69;5129323;27;20420;-52
2022/06/29 06:41:31;;;;;;;5.68;4.10;;;;;;;35.51;30.07;101213.63;5130963;27;20921;-52
2022/06/29 06:44:00;;;;;;;5.93;3.80;;;;;;;35.99;29.46;101209.75;5130216;27;20409;-54
2022/06/29 06:46:30;;;;;;;7.38;5.30;;;;;;;36.46;28.71;101206.13;5126774;27;20413;-53
2022/06/29 06:48:57;;;;;;;6.72;3.90;;;;;;;36.92;28.52;101203.56;5121678;27;20416;-54
2022/06/29 06:51:24;;;;;;;8.82;4.22;;;;;;;37.35;27.32;101199.63;5132107;27;20951;-52
2022/06/29 06:53:52;;;;;;;4.72;3.60;;;;;;;37.57;26.89;101198.41;5127020;27;20799;-52
2022/06/29 06:56:19;;;;;;;5.22;3.50;;;;;;;37.72;26.40;101201.69;5128178;27;20405;-53
2022/06/29 06:58:48;;;;;;;4.10;3.70;;;;;;;37.60;26.13;101202.44;5127769;27;20423;-52
2022/06/29 07:01:15;;;;;;;6.93;4.40;;;;;;;37.32;26.58;101218.84;5127562;27;20415;-53
2022/06/29 07:03:41;;;;;;;5.40;4.00;;;;;;;37.07;27.33;101221.47;5142358;27;20516;-53
2022/06/29 07:06:10;;;;;;;6.07;3.85;;;;;;;36.86;27.88;101227.00;5143186;27;20510;-52
2022/06/29 07:08:38;;;;;;;4.85;3.80;;;;;;;36.65;27.44;101227.00;5134855;27;20506;-52
2022/06/29 07:11:07;;;;;;;6.13;4.47;;;;;;;36.43;28.44;101223.38;5138480;27;20416;-55
2022/06/29 07:13:35;;;;;;;4.37;3.83;;;;;;;36.07;28.91;101232.13;5128328;27;20431;-55
2022/06/29 07:16:05;;;;;;;6.33;4.10;;;;;;;35.90;28.88;101236.56;5139485;27;20404;-52
2022/06/29 07:18:32;;;;;;;6.88;5.80;;;;;;;35.77;29.64;101224.59;5148370;27;20404;-51
2022/06/29 07:21:00;;;;;;;7.72;6.72;;;;;;;35.57;29.29;101226.09;5141692;27;20424;-53
2022/06/29 07:23:27;;;;;;;6.93;4.47;;;;;;;35.39;29.41;101230.03;5141937;27;20430;-52
2022/06/29 07:25:55;;;;;;;4.45;4.00;;;;;;;35.21;29.53;101234.75;5140577;27;20922;-54
2022/06/29 07:28:22;;;;;;;9.57;4.30;;;;;;;35.05;30.03;101220.59;5133985;27;20425;-52
2022/06/29 07:30:48;;;;;;;5.72;4.30;;;;;;;34.89;30.95;101230.47;5143553;27;20420;-54
2022/06/29 07:33:17;;;;;;;5.95;4.15;;;;;;;34.75;31.04;101236.13;5141974;27;20944;-51
2022/06/29 07:35:44;;;;;;;6.93;4.60;;;;;;;34.64;30.78;101224.56;5140169;27;20455;-53
2022/06/29 07:38:11;;;;;;;4.95;4.45;;;;;;;34.46;31.34;101224.53;5132958;27;20414;-52
2022/06/29 07:40:37;;;;;;;4.63;4.28;;;;;;;34.37;30.89;101222.91;5145195;27;20408;-53
2022/06/29 07:43:04;;;;;;;5.10;4.60;;;;;;;34.30;30.84;101217.84;5131333;27;20907;-53
2022/06/29 07:45:31;;;;;;;5.05;4.60;;;;;;;34.18;30.89;101210.22;5142309;27;20410;-52
2022/06/29 07:47:58;;;;;;;4.90;4.50;;;;;;;34.15;31.17;101210.81;5136827;27;20410;-52
2022/06/29 07:50:28;;;;;;;5.70;4.70;;;;;;;33.66;33.24;101213.50;5145299;27;20793;-53
2022/06/29 07:52:54;;;;;;;9.10;4.60;;;;;;;33.43;33.83;101201.69;5146319;27;20428;-53
2022/06/29 07:55:22;;;;;;;5.93;5.00;;;;;;;32.76;34.48;101203.22;5140593;27;20985;-51
2022/06/29 07:57:50;;;;;;;7.18;4.70;;;;;;;32.56;34.77;101203.63;5140912;27;20495;-52
2022/06/29 08:00:17;;;;;;;6.78;4.82;;;;;;;32.47;35.42;101202.75;5133338;27;20445;-52
2022/06/29 08:02:44;;;;;;;7.25;5.13;;;;;;;32.03;35.88;101215.88;5145129;27;20412;-51
2022/06/29 08:05:11;;;;;;;5.35;4.63;;;;;;;31.90;35.79;101205.72;5137752;27;20441;-51
2022/06/29 08:07:40;;;;;;;7.60;4.85;;;;;;;31.79;36.21;101208.66;5140851;27;20408;-52
2022/06/29 08:10:08;;;;;;;5.68;5.18;;;;;;;31.75;36.67;101202.16;5139605;27;20906;-52
2022/06/29 08:12:36;;;;;;;5.93;5.32;;;;;;;31.59;36.55;101200.78;5136464;27;20414;-51
2022/06/29 08:15:04;;;;;;;6.88;5.53;;;;;;;31.44;37.06;101201.84;5133904;27;20459;-50
2022/06/29 08:17:31;;;;;;;5.90;5.40;;;;;;;31.38;37.40;101200.28;5134963;27;20416;-53
2022/06/29 08:19:58;;;;;;;6.13;5.55;;;;;;;30.94;37.73;101210.53;5149359;27;20420;-54
2022/06/29 08:22:25;;;;;;;6.67;5.53;;;;;;;30.96;38.42;101205.56;5136541;27;20409;-50
2022/06/29 08:24:53;;;;;;;5.82;5.13;;;;;;;31.12;37.95;101206.16;5143658;27;20416;-52
2022/06/29 08:27:22;;;;;;;6.20;5.60;;;;;;;31.13;37.34;101198.75;5135301;27;20489;-52
2022/06/29 08:29:49;;;;;;;6.72;6.13;;;;;;;31.10;37.55;101202.91;5122479;27;20820;-51
2022/06/29 08:32:16;;;;;;;6.30;5.70;;;;;;;30.82;37.24;101199.16;5139852;27;20424;-52
2022/06/29 08:34:43;;;;;;;7.35;5.78;;;;;;;31.00;37.66;101194.84;5132779;27;20452;-52
2022/06/29 08:37:10;;;;;;;6.32;5.80;;;;;;;30.94;37.63;101196.84;5136940;27;20413;-51
2022/06/29 08:39:37;;;;;;;6.38;5.70;;;;;;;31.05;38.13;101195.56;5136651;27;20410;-52
2022/06/29 08:42:07;;;;;;;8.03;5.87;;;;;;;31.06;38.32;101205.44;5149424;27;20810;-52
2022/06/29 08:44:34;;;;;;;7.00;6.30;;;;;;;31.01;37.87;101201.97;5139931;27;20418;-53
2022/06/29 08:47:02;;;;;;;6.97;5.70;;;;;;;31.06;37.82;101194.47;5139002;27;20449;-52
2022/06/29 08:49:29;;;;;;;6.40;5.80;;;;;;;31.10;38.24;101199.34;5137155;27;20421;-53
2022/06/29 08:51:57;;;;;;;6.60;5.90;;;;;;;31.07;37.71;101200.75;5144661;27;20851;-52
2022/06/29 08:54:25;;;;;;;6.50;5.90;;;;;;;30.99;37.66;101190.47;5150584;27;20424;-54
2022/06/29 08:56:53;;;;;;;6.03;5.53;;;;;;;30.91;37.97;101191.91;5134049;27;20414;-52
2022/06/29 08:59:22;;;;;;;5.68;5.18;;;;;;;30.97;36.28;101189.94;5137403;27;20420;-53
2022/06/29 09:01:49;;;;;;;6.43;5.20;;;;;;;31.10;35.82;101181.00;5133529;27;20406;-52
2022/06/29 09:04:16;;;;;;;5.95;5.20;;;;;;;31.14;36.22;101186.72;5139328;27;20412;-52
2022/06/29 09:06:43;;;;;;;6.40;5.35;;;;;;;31.09;35.74;101187.59;5136016;27;20414;-51
2022/06/29 09:09:10;;;;;;;5.97;5.35;;;;;;;31.17;36.32;101188.81;5138009;27;20427;-52
2022/06/29 09:11:42;;;;;;;6.63;5.30;;;;;;;31.24;35.52;101192.00;5139333;27;20506;-51
2022/06/29 09:14:11;;;;;;;6.50;4.30;;;;;;;31.22;34.36;101192.31;5118809;27;20451;-53
2022/06/29 09:16:57;;;;;;;5.55;4.55;;;;;;;31.19;34.08;101190.16;5141750;27;20416;-52
2022/06/29 09:19:27;;;;;;;5.07;4.57;;;;;;;31.30;34.35;101190.03;5138654;27;20922;-52
2022/06/29 09:21:58;;;;;;;6.50;4.80;;;;;;;31.37;34.78;101185.78;5137959;27;20412;-52
2022/06/29 09:24:28;;;;;;;4.47;4.10;;;;;;;31.36;34.39;101180.59;5129624;27;20782;-52
2022/06/29 09:26:56;;;;;;;4.75;4.22;;;;;;;31.44;34.34;101185.41;5130933;27;20474;-53
2022/06/29 09:29:25;;;;;;;5.27;4.27;;;;;;;31.48;34.49;101186.44;5130341;27;20416;-51
2022/06/29 09:32:15;;;;;;;3.75;3.33;;;;;;;31.39;32.69;101182.75;5130550;27;20406;-51
2022/06/29 09:34:44;;;;;;;3.60;3.03;;;;;;;31.36;31.59;101177.84;5127498;27;20799;-52
2022/06/29 09:37:13;;;;;;;3.43;2.70;;;;;;;31.47;31.06;101187.53;5130133;27;20784;-53
2022/06/29 09:39:42;;;;;;;3.37;3.07;;;;;;;31.68;30.67;101176.25;5129024;27;20410;-54
2022/06/29 09:42:11;;;;;;;3.15;2.58;;;;;;;31.63;30.20;101175.22;5133509;27;20405;-53
2022/06/29 09:44:38;;;;;;;3.58;2.50;;;;;;;31.78;29.89;101173.31;5129615;27;20417;-54
2022/06/29 09:47:08;;;;;;;4.40;3.60;;;;;;;31.73;31.47;101182.47;5122786;27;20471;-52
2022/06/29 09:49:37;;;;;;;5.90;5.30;;;;;;;31.86;33.57;101178.09;5129139;27;21076;-53
2022/06/29 09:52:07;;;;;;;6.35;5.70;;;;;;;31.86;34.50;101169.06;5130394;27;20413;-50
2022/06/29 09:54:38;;;;;;;5.53;5.03;;;;;;;31.74;34.88;101164.88;5130606;27;20417;-52
2022/06/29 09:57:07;;;;;;;6.45;5.95;;;;;;;31.68;35.73;101173.50;5146347;27;20945;-54
2022/06/29 10:02:36;;;;;;;5.00;4.50;;;;;;;31.45;35.03;101168.63;5135298;27;20423;-52
2022/06/29 10:05:08;;;;;;;4.15;3.60;;;;;;;31.54;33.86;101157.03;5132486;27;20940;-52
2022/06/29 10:07:37;;;;;;;3.58;3.13;;;;;;;31.54;31.95;101159.78;5134326;27;20414;-51
2022/06/29 10:10:07;;;;;;;3.63;2.55;;;;;;;31.55;30.50;101153.19;5129262;27;20512;-53
2022/06/29 10:16:05;;;;;;;3.05;2.75;;;;;;;31.67;30.77;101158.16;5130468;27;20491;-52
2022/06/29 10:18:56;;;;;;;4.22;2.90;;;;;;;31.70;31.70;101152.91;5123371;28;20497;-49
2022/06/29 10:21:28;;;;;;;3.80;3.10;;;;;;;31.67;32.36;101145.28;5126676;28;20488;-54
2022/06/29 10:23:57;;;;;;;5.83;3.30;;;;;;;31.75;32.06;101143.78;5127527;28;20401;-53
2022/06/29 10:26:51;;;;;;;3.40;3.10;;;;;;;31.84;32.48;101139.22;5129717;28;20425;-56
2022/06/29 10:29:41;;;;;;;5.80;3.05;;;;;;;31.76;31.58;101145.38;5078787;28;20411;-51
2022/06/29 10:32:13;;;;;;;3.63;2.97;;;;;;;31.83;31.79;101137.59;5102724;27;20437;-53
2022/06/29 10:37:25;;;;;;;3.47;3.17;;;;;;;31.80;31.15;101127.22;5132711;27;20724;-52
2022/06/29 10:39:53;;;;;;;2.92;2.70;;;;;;;31.92;31.42;101129.47;5143623;27;20412;-52
2022/06/29 10:45:25;;;;;;;3.55;3.10;;;;;;;32.02;31.48;101112.81;5130848;27;20412;-54
2022/06/29 10:48:25;;;;;;;3.60;3.30;;;;;;;32.00;31.65;101117.81;5140938;27;20935;-53
2022/06/29 10:50:52;;;;;;;3.60;3.30;;;;;;;32.10;30.74;101117.59;5132790;27;20470;-52
2022/06/29 10:53:22;;;;;;;4.63;3.50;;;;;;;32.26;31.46;101109.06;5138400;27;20428;-53
2022/06/29 10:55:54;;;;;;;3.47;3.00;;;;;;;32.19;31.80;101112.22;5143983;27;20445;-53
2022/06/29 10:58:22;;;;;;;3.80;3.13;;;;;;;32.24;31.08;101105.81;5134496;27;20420;-52
2022/06/29 11:00:52;;;;;;;4.80;3.20;;;;;;;32.37;31.46;101102.22;5134118;27;20410;-52
2022/06/29 11:03:22;;;;;;;3.30;2.97;;;;;;;32.35;31.18;101098.97;5131050;27;20983;-53
2022/06/29 11:15:39;;;;;;;4.43;3.30;;;;;;;32.52;30.43;101092.84;5137689;27;20786;-54
2022/06/29 11:16:56;;;;;;;3.40;3.05;;;;;;;32.69;30.41;101090.28;5134727;27;20826;-53
2022/06/29 11:19:29;;;;;;;4.03;3.00;;;;;;;32.80;30.09;101085.34;5139376;27;20414;-53
2022/06/29 11:22:10;;;;;;;3.27;3.03;;;;;;;32.85;30.31;101089.91;5130945;27;20412;-52
2022/06/29 11:24:52;;;;;;;3.60;3.30;;;;;;;32.83;30.57;101090.22;5133282;27;20409;-56
2022/06/29 11:27:36;;;;;;;4.13;3.13;;;;;;;32.99;30.53;101087.09;5134773;27;20568;-54
2022/06/29 11:30:08;;;;;;;4.38;3.20;;;;;;;33.06;30.77;101081.97;5136430;27;20576;-53
2022/06/29 11:32:39;;;;;;;3.65;3.17;;;;;;;33.14;30.50;101075.75;5132358;27;20398;-54
2022/06/29 11:35:07;;;;;;;4.45;3.22;;;;;;;32.93;29.99;101078.97;5131909;27;20421;-56
2022/06/29 11:37:34;;;;;;;3.90;3.30;;;;;;;32.94;30.74;101071.56;5131156;27;20795;-54
2022/06/29 11:40:03;;;;;;;3.33;3.03;;;;;;;33.00;29.87;101069.50;5132290;27;20779;-53
2022/06/29 11:45:17;;;;;;;3.08;2.80;;;;;;;33.03;29.80;101071.63;5132465;27;20400;-54
2022/06/29 11:47:52;;;;;;;4.17;3.10;;;;;;;33.16;29.79;101067.22;5138856;27;20410;-54
2022/06/29 11:50:19;;;;;;;3.25;3.03;;;;;;;33.19;29.73;101061.91;5136944;27;20411;-54
2022/06/29 11:52:47;;;;;;;2.88;2.67;;;;;;;33.00;28.90;101064.00;5137044;27;20789;-54
2022/06/29 11:55:15;;;;;;;3.20;2.88;;;;;;;32.99;28.88;101057.72;5131863;27;20461;-54
2022/06/29 11:57:43;;;;;;;4.30;2.70;;;;;;;33.09;29.70;101046.44;5132153;27;20790;-53
2022/06/29 12:00:11;;;;;;;3.42;2.92;;;;;;;33.13;28.86;101041.16;5132112;27;20413;-54
2022/06/29 12:02:38;;;;;;;4.18;3.05;;;;;;;33.28;29.35;101045.47;5133775;27;20493;-53